Strona główna
METAR-TAF:

METAR-TAF

Lotnisko :

Lansing Municipal Airport

Lansing, Illinois, Stany Zjednoczone

Szerokość geograficzna: 41-32-24N, Długość geograficzna: 087-31-56W, wysokość: 188 m

Aktualna obserwacja pogody

Raport powstał 30 minut temu, godzina 20:55 UTC
Wiatr 8 kt od południowo-południowy zachód, zmienny między południe i południowy zachód
Temperatura 18°C
Wilgotność 56%
Ciśnienie 1015 hPa
Widzialność: 16.1 km
Rozproszone chmury na wysokości 3900 ft
Przerywane chmury na wysokości 6000 ft
Przerywane chmury na wysokości 7500 ft

METAR: KIGQ 062055Z AUTO 20008KT 170V230 10SM SCT039 BKN060 BKN075 18/09 A2996 RMK AO2 T01800088

czas: 16:25 (21:25 UTC)


TAF: brakujący

Obserwacja i prognoza pogody dla ponad 4000 lotnisk (raport METAR i TAF).

Dostępne stacje oznaczono żółtymi i czerwonymi punktami na mapie.

Najedź kursorem aby zobaczyć nazwę stacji.

Kliknij aby zobaczyć obserwacje i prognozy pogody.

Aby zmienić mapę: kliknij na zielony przycisk z czarnym krzyżykiem, aby powiększyć; na zielony przycisk z myślnikiem, aby pomniejszyć; na zielone strzałki, aby przejść do map sąsiednich.


METAR-TAF: